sensor_id;sensor_type;location;lat;lon;timestamp;P1;durP1;ratioP1;P2;durP2;ratioP2
57707;SDS011;43540;51.690;9.562;2023-05-29T08:36:33;6.32;;;3.15;;
57707;SDS011;43540;51.690;9.562;2023-05-29T08:39:00;6.72;;;3.33;;
57707;SDS011;43540;51.690;9.562;2023-05-29T08:41:28;9.43;;;3.58;;
57707;SDS011;43540;51.690;9.562;2023-05-29T08:44:08;8.75;;;3.90;;
57707;SDS011;43540;51.690;9.562;2023-05-29T08:46:44;7.15;;;3.45;;
57707;SDS011;43540;51.690;9.562;2023-05-29T08:49:12;8.30;;;3.47;;
57707;SDS011;43540;51.690;9.562;2023-05-29T08:51:43;10.32;;;3.55;;
57707;SDS011;43540;51.690;9.562;2023-05-29T08:54:13;9.55;;;3.65;;
57707;SDS011;43540;51.690;9.562;2023-05-29T08:56:41;11.15;;;3.80;;
57707;SDS011;43540;51.690;9.562;2023-05-29T08:59:09;8.90;;;3.85;;
57707;SDS011;43540;51.690;9.562;2023-05-29T09:01:38;7.85;;;3.88;;
57707;SDS011;43540;51.690;9.562;2023-05-29T09:04:05;10.35;;;4.05;;
57707;SDS011;43540;51.690;9.562;2023-05-29T09:06:32;9.90;;;3.65;;
57707;SDS011;43540;51.690;9.562;2023-05-29T09:08:58;11.10;;;3.80;;
57707;SDS011;43540;51.690;9.562;2023-05-29T09:11:25;9.90;;;3.50;;
57707;SDS011;43540;51.690;9.562;2023-05-29T09:13:52;6.97;;;3.67;;
57707;SDS011;43540;51.690;9.562;2023-05-29T09:16:19;8.95;;;3.70;;
57707;SDS011;43540;51.690;9.562;2023-05-29T09:18:49;8.30;;;3.72;;
57707;SDS011;43540;51.690;9.562;2023-05-29T09:21:25;11.13;;;3.65;;
57707;SDS011;43540;51.690;9.562;2023-05-29T09:23:54;10.82;;;3.75;;
57707;SDS011;43540;51.690;9.562;2023-05-29T09:26:21;11.60;;;4.00;;
57707;SDS011;43540;51.690;9.562;2023-05-29T09:28:49;7.72;;;3.80;;
57707;SDS011;43540;51.690;9.562;2023-05-29T09:31:16;9.77;;;3.67;;
57707;SDS011;43540;51.690;9.562;2023-05-29T09:33:47;7.25;;;3.60;;
57707;SDS011;43540;51.690;9.562;2023-05-29T09:36:24;8.80;;;3.90;;
57707;SDS011;43540;51.690;9.562;2023-05-29T09:38:52;8.98;;;3.47;;
57707;SDS011;43540;51.690;9.562;2023-05-29T09:41:25;14.18;;;3.70;;
57707;SDS011;43540;51.690;9.562;2023-05-29T09:43:52;11.38;;;3.47;;
57707;SDS011;43540;51.690;9.562;2023-05-29T09:46:23;7.30;;;3.65;;
57707;SDS011;43540;51.690;9.562;2023-05-29T09:48:50;7.57;;;3.60;;
57707;SDS011;43540;51.690;9.562;2023-05-29T09:51:20;8.50;;;3.60;;
57707;SDS011;43540;51.690;9.562;2023-05-29T09:53:48;12.27;;;4.03;;
57707;SDS011;43540;51.690;9.562;2023-05-29T09:56:17;9.82;;;3.45;;
57707;SDS011;43540;51.690;9.562;2023-05-29T09:58:44;10.88;;;3.72;;
57707;SDS011;43540;51.690;9.562;2023-05-29T10:01:16;9.63;;;3.17;;
57707;SDS011;43540;51.690;9.562;2023-05-29T10:03:43;8.02;;;3.67;;
57707;SDS011;43540;51.690;9.562;2023-05-29T10:06:10;8.05;;;3.50;;
57707;SDS011;43540;51.690;9.562;2023-05-29T10:08:42;10.07;;;4.03;;
57707;SDS011;43540;51.690;9.562;2023-05-29T10:11:16;9.32;;;3.83;;
57707;SDS011;43540;51.690;9.562;2023-05-29T10:13:48;8.35;;;3.50;;
57707;SDS011;43540;51.690;9.562;2023-05-29T10:16:15;11.15;;;4.00;;
57707;SDS011;43540;51.690;9.562;2023-05-29T10:18:49;6.78;;;3.60;;
57707;SDS011;43540;51.690;9.562;2023-05-29T10:21:20;11.00;;;3.97;;
57707;SDS011;43540;51.690;9.562;2023-05-29T10:23:49;7.07;;;3.58;;
57707;SDS011;43540;51.690;9.562;2023-05-29T10:26:21;8.00;;;3.88;;
57707;SDS011;43540;51.690;9.562;2023-05-29T10:31:48;7.95;;;3.38;;
57707;SDS011;43540;51.690;9.562;2023-05-29T10:37:12;8.63;;;3.47;;
57707;SDS011;43540;51.690;9.562;2023-05-29T10:39:43;11.35;;;3.72;;
57707;SDS011;43540;51.690;9.562;2023-05-29T10:47:56;9.48;;;3.70;;
57707;SDS011;43540;51.690;9.562;2023-05-29T10:50:47;8.77;;;3.40;;
57707;SDS011;43540;51.690;9.562;2023-05-29T10:53:17;11.63;;;3.60;;
57707;SDS011;43540;51.690;9.562;2023-05-29T10:55:48;10.27;;;3.88;;
57707;SDS011;43540;51.690;9.562;2023-05-29T10:58:24;10.23;;;3.63;;
57707;SDS011;43540;51.690;9.562;2023-05-29T11:00:52;10.57;;;3.80;;
57707;SDS011;43540;51.690;9.562;2023-05-29T11:03:22;9.48;;;3.80;;
57707;SDS011;43540;51.690;9.562;2023-05-29T11:05:56;8.95;;;3.25;;
57707;SDS011;43540;51.690;9.562;2023-05-29T11:08:33;8.95;;;3.50;;
57707;SDS011;43540;51.690;9.562;2023-05-29T11:13:55;12.38;;;3.92;;
57707;SDS011;43540;51.690;9.562;2023-05-29T11:18:56;11.50;;;3.40;;
57707;SDS011;43540;51.690;9.562;2023-05-29T11:21:30;9.85;;;4.13;;
57707;SDS011;43540;51.690;9.562;2023-05-29T11:24:02;8.23;;;3.50;;
57707;SDS011;43540;51.690;9.562;2023-05-29T11:26:33;8.65;;;3.47;;
57707;SDS011;43540;51.690;9.562;2023-05-29T11:29:03;9.57;;;3.85;;
57707;SDS011;43540;51.690;9.562;2023-05-29T11:31:35;7.22;;;3.58;;
57707;SDS011;43540;51.690;9.562;2023-05-29T11:34:03;8.68;;;3.50;;
57707;SDS011;43540;51.690;9.562;2023-05-29T11:36:34;9.20;;;3.30;;
57707;SDS011;43540;51.690;9.562;2023-05-29T11:39:02;12.52;;;3.53;;
57707;SDS011;43540;51.690;9.562;2023-05-29T11:41:30;9.63;;;3.90;;
57707;SDS011;43540;51.690;9.562;2023-05-29T11:46:32;6.88;;;3.10;;
57707;SDS011;43540;51.690;9.562;2023-05-29T11:48:59;11.40;;;4.07;;
57707;SDS011;43540;51.690;9.562;2023-05-29T11:51:26;9.45;;;3.75;;
57707;SDS011;43540;51.690;9.562;2023-05-29T11:53:54;12.60;;;3.92;;
57707;SDS011;43540;51.690;9.562;2023-05-29T11:56:25;10.50;;;3.95;;
57707;SDS011;43540;51.690;9.562;2023-05-29T11:58:53;7.45;;;3.25;;
57707;SDS011;43540;51.690;9.562;2023-05-29T12:01:26;8.68;;;3.78;;
57707;SDS011;43540;51.690;9.562;2023-05-29T12:03:54;10.70;;;3.53;;
57707;SDS011;43540;51.690;9.562;2023-05-29T12:06:31;9.73;;;3.40;;
57707;SDS011;43540;51.690;9.562;2023-05-29T12:08:59;7.82;;;3.58;;
57707;SDS011;43540;51.690;9.562;2023-05-29T12:11:25;6.63;;;3.30;;
57707;SDS011;43540;51.690;9.562;2023-05-29T12:13:56;8.00;;;3.40;;
57707;SDS011;43540;51.690;9.562;2023-05-29T12:16:24;11.75;;;3.80;;
57707;SDS011;43540;51.690;9.562;2023-05-29T12:18:52;6.93;;;3.00;;
57707;SDS011;43540;51.690;9.562;2023-05-29T12:21:20;7.13;;;3.35;;
57707;SDS011;43540;51.690;9.562;2023-05-29T12:23:48;9.73;;;3.45;;
57707;SDS011;43540;51.690;9.562;2023-05-29T12:26:35;8.93;;;3.83;;
57707;SDS011;43540;51.690;9.562;2023-05-29T12:29:03;8.57;;;3.47;;
57707;SDS011;43540;51.690;9.562;2023-05-29T12:31:33;8.15;;;3.30;;
57707;SDS011;43540;51.690;9.562;2023-05-29T12:34:11;10.63;;;3.85;;
57707;SDS011;43540;51.690;9.562;2023-05-29T12:36:42;9.88;;;3.13;;
57707;SDS011;43540;51.690;9.562;2023-05-29T12:39:11;9.05;;;3.78;;
57707;SDS011;43540;51.690;9.562;2023-05-29T12:41:38;8.50;;;3.85;;
57707;SDS011;43540;51.690;9.562;2023-05-29T12:44:06;6.47;;;2.95;;
57707;SDS011;43540;51.690;9.562;2023-05-29T12:46:38;8.40;;;3.50;;
57707;SDS011;43540;51.690;9.562;2023-05-29T12:49:13;7.82;;;3.30;;
57707;SDS011;43540;51.690;9.562;2023-05-29T12:51:40;8.15;;;3.40;;
57707;SDS011;43540;51.690;9.562;2023-05-29T12:54:12;10.02;;;4.10;;
57707;SDS011;43540;51.690;9.562;2023-05-29T12:56:40;8.55;;;3.38;;
57707;SDS011;43540;51.690;9.562;2023-05-29T12:59:07;6.20;;;3.25;;
57707;SDS011;43540;51.690;9.562;2023-05-29T13:01:35;7.13;;;3.28;;
57707;SDS011;43540;51.690;9.562;2023-05-29T13:04:03;7.63;;;3.63;;
57707;SDS011;43540;51.690;9.562;2023-05-29T13:06:34;9.45;;;3.47;;
57707;SDS011;43540;51.690;9.562;2023-05-29T13:09:01;7.82;;;3.75;;
57707;SDS011;43540;51.690;9.562;2023-05-29T13:11:29;7.75;;;3.70;;
57707;SDS011;43540;51.690;9.562;2023-05-29T13:13:55;8.45;;;3.90;;
57707;SDS011;43540;51.690;9.562;2023-05-29T13:16:22;9.23;;;3.38;;
57707;SDS011;43540;51.690;9.562;2023-05-29T13:18:49;8.13;;;3.50;;
57707;SDS011;43540;51.690;9.562;2023-05-29T13:21:15;8.95;;;3.50;;
57707;SDS011;43540;51.690;9.562;2023-05-29T13:23:42;10.30;;;4.10;;
57707;SDS011;43540;51.690;9.562;2023-05-29T13:26:09;7.47;;;3.40;;
57707;SDS011;43540;51.690;9.562;2023-05-29T13:28:35;7.32;;;3.58;;
57707;SDS011;43540;51.690;9.562;2023-05-29T13:31:02;6.45;;;3.08;;
57707;SDS011;43540;51.690;9.562;2023-05-29T13:33:29;7.57;;;3.28;;
57707;SDS011;43540;51.690;9.562;2023-05-29T13:35:55;9.32;;;3.40;;
57707;SDS011;43540;51.690;9.562;2023-05-29T13:38:23;5.65;;;3.22;;
57707;SDS011;43540;51.690;9.562;2023-05-29T13:40:50;7.38;;;3.67;;
57707;SDS011;43540;51.690;9.562;2023-05-29T13:43:17;8.05;;;3.38;;
57707;SDS011;43540;51.690;9.562;2023-05-29T13:45:47;7.38;;;3.35;;
57707;SDS011;43540;51.690;9.562;2023-05-29T13:48:14;8.27;;;3.50;;
57707;SDS011;43540;51.690;9.562;2023-05-29T13:50:41;7.85;;;3.63;;
57707;SDS011;43540;51.690;9.562;2023-05-29T13:53:07;6.13;;;3.83;;
57707;SDS011;43540;51.690;9.562;2023-05-29T13:55:34;9.45;;;3.50;;
57707;SDS011;43540;51.690;9.562;2023-05-29T13:58:01;4.78;;;3.20;;
57707;SDS011;43540;51.690;9.562;2023-05-29T14:00:27;7.45;;;3.97;;
57707;SDS011;43540;51.690;9.562;2023-05-29T14:02:54;6.43;;;3.67;;
57707;SDS011;43540;51.690;9.562;2023-05-29T14:05:21;8.50;;;3.42;;
57707;SDS011;43540;51.690;9.562;2023-05-29T14:07:47;5.78;;;3.25;;
57707;SDS011;43540;51.690;9.562;2023-05-29T14:10:14;7.00;;;3.17;;
57707;SDS011;43540;51.690;9.562;2023-05-29T14:12:41;7.88;;;3.55;;
57707;SDS011;43540;51.690;9.562;2023-05-29T14:15:08;7.82;;;3.25;;
57707;SDS011;43540;51.690;9.562;2023-05-29T14:17:35;6.97;;;3.30;;
57707;SDS011;43540;51.690;9.562;2023-05-29T14:20:01;7.57;;;3.47;;
57707;SDS011;43540;51.690;9.562;2023-05-29T14:22:31;6.10;;;3.42;;
57707;SDS011;43540;51.690;9.562;2023-05-29T14:24:58;6.50;;;3.00;;
57707;SDS011;43540;51.690;9.562;2023-05-29T14:27:26;7.65;;;3.30;;
57707;SDS011;43540;51.690;9.562;2023-05-29T14:29:53;6.25;;;2.83;;
57707;SDS011;43540;51.690;9.562;2023-05-29T14:32:19;4.40;;;2.83;;
57707;SDS011;43540;51.690;9.562;2023-05-29T14:34:47;9.75;;;3.20;;
57707;SDS011;43540;51.690;9.562;2023-05-29T14:37:14;7.10;;;3.13;;
57707;SDS011;43540;51.690;9.562;2023-05-29T14:39:41;5.50;;;2.80;;
57707;SDS011;43540;51.690;9.562;2023-05-29T14:42:07;6.32;;;2.88;;
57707;SDS011;43540;51.690;9.562;2023-05-29T14:44:34;6.65;;;3.22;;
57707;SDS011;43540;51.690;9.562;2023-05-29T14:47:01;7.20;;;3.40;;
57707;SDS011;43540;51.690;9.562;2023-05-29T14:49:27;6.57;;;2.85;;
57707;SDS011;43540;51.690;9.562;2023-05-29T14:51:58;7.90;;;3.40;;
57707;SDS011;43540;51.690;9.562;2023-05-29T14:54:24;7.40;;;3.33;;
57707;SDS011;43540;51.690;9.562;2023-05-29T14:56:53;6.80;;;2.90;;
57707;SDS011;43540;51.690;9.562;2023-05-29T14:59:20;7.13;;;3.22;;
57707;SDS011;43540;51.690;9.562;2023-05-29T15:01:47;6.80;;;3.03;;
57707;SDS011;43540;51.690;9.562;2023-05-29T15:04:15;6.75;;;3.40;;
57707;SDS011;43540;51.690;9.562;2023-05-29T15:06:42;6.88;;;3.35;;
57707;SDS011;43540;51.690;9.562;2023-05-29T15:09:17;8.68;;;2.97;;
57707;SDS011;43540;51.690;9.562;2023-05-29T15:11:43;6.93;;;2.70;;
57707;SDS011;43540;51.690;9.562;2023-05-29T15:14:10;7.43;;;3.10;;
57707;SDS011;43540;51.690;9.562;2023-05-29T15:16:37;7.57;;;3.13;;
57707;SDS011;43540;51.690;9.562;2023-05-29T15:19:04;13.35;;;5.03;;
57707;SDS011;43540;51.690;9.562;2023-05-29T15:21:31;9.07;;;3.20;;
57707;SDS011;43540;51.690;9.562;2023-05-29T15:23:58;8.02;;;3.10;;
57707;SDS011;43540;51.690;9.562;2023-05-29T15:26:24;7.68;;;3.00;;
57707;SDS011;43540;51.690;9.562;2023-05-29T15:28:52;5.15;;;3.15;;
57707;SDS011;43540;51.690;9.562;2023-05-29T15:31:19;6.65;;;3.13;;
57707;SDS011;43540;51.690;9.562;2023-05-29T15:33:48;6.88;;;3.35;;
57707;SDS011;43540;51.690;9.562;2023-05-29T15:36:15;5.88;;;2.58;;
57707;SDS011;43540;51.690;9.562;2023-05-29T15:38:42;7.43;;;3.20;;
57707;SDS011;43540;51.690;9.562;2023-05-29T15:41:09;9.98;;;3.45;;
57707;SDS011;43540;51.690;9.562;2023-05-29T15:43:35;7.45;;;3.13;;
57707;SDS011;43540;51.690;9.562;2023-05-29T15:46:02;7.90;;;2.88;;
57707;SDS011;43540;51.690;9.562;2023-05-29T15:48:30;6.32;;;2.83;;
57707;SDS011;43540;51.690;9.562;2023-05-29T15:50:56;7.85;;;3.00;;
57707;SDS011;43540;51.690;9.562;2023-05-29T15:53:23;5.80;;;2.47;;
57707;SDS011;43540;51.690;9.562;2023-05-29T15:55:49;4.97;;;2.65;;
57707;SDS011;43540;51.690;9.562;2023-05-29T15:58:16;8.10;;;2.78;;
57707;SDS011;43540;51.690;9.562;2023-05-29T16:00:43;7.68;;;2.88;;
57707;SDS011;43540;51.690;9.562;2023-05-29T16:03:09;8.60;;;2.90;;
57707;SDS011;43540;51.690;9.562;2023-05-29T16:05:36;7.10;;;2.90;;
57707;SDS011;43540;51.690;9.562;2023-05-29T16:08:02;7.53;;;3.20;;
57707;SDS011;43540;51.690;9.562;2023-05-29T16:10:29;5.47;;;3.20;;
57707;SDS011;43540;51.690;9.562;2023-05-29T16:12:56;7.75;;;3.33;;
57707;SDS011;43540;51.690;9.562;2023-05-29T16:15:23;8.13;;;3.28;;
57707;SDS011;43540;51.690;9.562;2023-05-29T16:17:50;8.10;;;3.42;;
57707;SDS011;43540;51.690;9.562;2023-05-29T16:20:17;9.48;;;3.47;;
57707;SDS011;43540;51.690;9.562;2023-05-29T16:22:44;5.70;;;2.78;;
57707;SDS011;43540;51.690;9.562;2023-05-29T16:25:11;5.95;;;2.42;;
57707;SDS011;43540;51.690;9.562;2023-05-29T16:27:37;6.30;;;2.83;;
57707;SDS011;43540;51.690;9.562;2023-05-29T16:30:05;6.68;;;2.92;;
57707;SDS011;43540;51.690;9.562;2023-05-29T16:32:32;5.88;;;2.58;;
57707;SDS011;43540;51.690;9.562;2023-05-29T16:35:00;8.10;;;3.30;;
57707;SDS011;43540;51.690;9.562;2023-05-29T16:37:30;6.28;;;2.90;;
57707;SDS011;43540;51.690;9.562;2023-05-29T16:39:57;7.78;;;2.80;;
57707;SDS011;43540;51.690;9.562;2023-05-29T16:42:24;6.70;;;2.78;;
57707;SDS011;43540;51.690;9.562;2023-05-29T16:44:51;8.07;;;3.28;;
57707;SDS011;43540;51.690;9.562;2023-05-29T16:47:18;6.80;;;2.55;;
57707;SDS011;43540;51.690;9.562;2023-05-29T16:49:46;6.93;;;2.85;;
57707;SDS011;43540;51.690;9.562;2023-05-29T16:52:12;8.35;;;3.05;;
57707;SDS011;43540;51.690;9.562;2023-05-29T16:54:40;11.82;;;2.92;;
57707;SDS011;43540;51.690;9.562;2023-05-29T16:57:08;7.90;;;3.05;;
57707;SDS011;43540;51.690;9.562;2023-05-29T16:59:35;9.32;;;2.83;;
57707;SDS011;43540;51.690;9.562;2023-05-29T17:02:03;8.43;;;2.83;;
57707;SDS011;43540;51.690;9.562;2023-05-29T17:04:30;7.32;;;3.10;;
57707;SDS011;43540;51.690;9.562;2023-05-29T17:06:59;6.40;;;3.10;;
57707;SDS011;43540;51.690;9.562;2023-05-29T17:09:26;5.90;;;2.65;;
57707;SDS011;43540;51.690;9.562;2023-05-29T17:11:56;5.53;;;2.67;;
57707;SDS011;43540;51.690;9.562;2023-05-29T17:14:23;7.53;;;3.03;;
57707;SDS011;43540;51.690;9.562;2023-05-29T17:16:50;7.25;;;2.90;;
57707;SDS011;43540;51.690;9.562;2023-05-29T17:19:17;6.05;;;2.95;;
57707;SDS011;43540;51.690;9.562;2023-05-29T17:21:44;6.05;;;2.78;;
57707;SDS011;43540;51.690;9.562;2023-05-29T17:24:11;7.53;;;2.90;;
57707;SDS011;43540;51.690;9.562;2023-05-29T17:26:38;6.72;;;2.78;;
57707;SDS011;43540;51.690;9.562;2023-05-29T17:29:05;5.32;;;2.60;;
57707;SDS011;43540;51.690;9.562;2023-05-29T17:31:33;6.30;;;2.53;;
57707;SDS011;43540;51.690;9.562;2023-05-29T17:34:00;6.50;;;2.50;;
57707;SDS011;43540;51.690;9.562;2023-05-29T17:36:26;8.52;;;2.50;;
57707;SDS011;43540;51.690;9.562;2023-05-29T17:38:53;9.68;;;2.97;;
57707;SDS011;43540;51.690;9.562;2023-05-29T17:41:20;6.50;;;2.78;;
57707;SDS011;43540;51.690;9.562;2023-05-29T17:43:46;8.18;;;2.85;;
57707;SDS011;43540;51.690;9.562;2023-05-29T17:46:13;7.45;;;2.40;;
57707;SDS011;43540;51.690;9.562;2023-05-29T17:48:45;6.63;;;2.55;;
57707;SDS011;43540;51.690;9.562;2023-05-29T17:51:13;5.32;;;2.40;;
57707;SDS011;43540;51.690;9.562;2023-05-29T17:53:41;6.68;;;2.53;;
57707;SDS011;43540;51.690;9.562;2023-05-29T17:56:08;6.90;;;2.33;;
57707;SDS011;43540;51.690;9.562;2023-05-29T17:58:35;8.02;;;2.50;;
57707;SDS011;43540;51.690;9.562;2023-05-29T18:01:01;5.45;;;2.45;;
57707;SDS011;43540;51.690;9.562;2023-05-29T18:03:28;5.00;;;2.08;;
57707;SDS011;43540;51.690;9.562;2023-05-29T18:05:55;6.63;;;2.30;;
57707;SDS011;43540;51.690;9.562;2023-05-29T18:08:22;9.95;;;2.92;;
57707;SDS011;43540;51.690;9.562;2023-05-29T18:10:49;6.13;;;2.28;;
57707;SDS011;43540;51.690;9.562;2023-05-29T18:13:16;7.55;;;2.40;;
57707;SDS011;43540;51.690;9.562;2023-05-29T18:15:42;6.88;;;2.72;;
57707;SDS011;43540;51.690;9.562;2023-05-29T18:18:09;7.93;;;2.75;;
57707;SDS011;43540;51.690;9.562;2023-05-29T18:20:36;11.27;;;3.00;;
57707;SDS011;43540;51.690;9.562;2023-05-29T18:23:03;6.38;;;2.13;;
57707;SDS011;43540;51.690;9.562;2023-05-29T18:25:30;8.18;;;2.60;;
57707;SDS011;43540;51.690;9.562;2023-05-29T18:27:58;7.13;;;2.33;;
57707;SDS011;43540;51.690;9.562;2023-05-29T18:30:25;5.20;;;2.67;;
57707;SDS011;43540;51.690;9.562;2023-05-29T18:32:51;5.80;;;3.10;;
57707;SDS011;43540;51.690;9.562;2023-05-29T18:35:19;6.03;;;2.50;;
57707;SDS011;43540;51.690;9.562;2023-05-29T18:37:46;9.15;;;3.88;;
57707;SDS011;43540;51.690;9.562;2023-05-29T18:40:16;8.90;;;3.15;;
57707;SDS011;43540;51.690;9.562;2023-05-29T18:42:43;6.28;;;2.80;;
57707;SDS011;43540;51.690;9.562;2023-05-29T18:45:10;8.93;;;3.28;;
57707;SDS011;43540;51.690;9.562;2023-05-29T18:47:36;7.63;;;3.00;;
57707;SDS011;43540;51.690;9.562;2023-05-29T18:50:04;9.65;;;3.22;;
57707;SDS011;43540;51.690;9.562;2023-05-29T18:52:30;9.38;;;3.17;;
57707;SDS011;43540;51.690;9.562;2023-05-29T18:54:58;6.20;;;2.70;;
57707;SDS011;43540;51.690;9.562;2023-05-29T18:57:25;8.57;;;3.50;;
57707;SDS011;43540;51.690;9.562;2023-05-29T18:59:51;10.15;;;3.30;;
57707;SDS011;43540;51.690;9.562;2023-05-29T19:02:19;8.95;;;3.08;;
57707;SDS011;43540;51.690;9.562;2023-05-29T19:04:46;8.90;;;2.95;;
57707;SDS011;43540;51.690;9.562;2023-05-29T19:07:13;10.27;;;3.10;;
57707;SDS011;43540;51.690;9.562;2023-05-29T19:09:40;9.27;;;3.13;;
57707;SDS011;43540;51.690;9.562;2023-05-29T19:12:09;7.85;;;2.90;;
57707;SDS011;43540;51.690;9.562;2023-05-29T19:14:35;10.07;;;3.42;;
57707;SDS011;43540;51.690;9.562;2023-05-29T19:17:03;10.13;;;3.35;;
57707;SDS011;43540;51.690;9.562;2023-05-29T19:19:34;11.90;;;3.33;;
57707;SDS011;43540;51.690;9.562;2023-05-29T19:22:02;12.27;;;3.25;;
57707;SDS011;43540;51.690;9.562;2023-05-29T19:24:29;9.75;;;3.30;;
57707;SDS011;43540;51.690;9.562;2023-05-29T19:26:56;8.27;;;3.22;;
57707;SDS011;43540;51.690;9.562;2023-05-29T19:29:22;8.05;;;2.85;;
57707;SDS011;43540;51.690;9.562;2023-05-29T19:31:49;10.93;;;3.53;;
57707;SDS011;43540;51.690;9.562;2023-05-29T19:34:16;8.48;;;2.90;;
57707;SDS011;43540;51.690;9.562;2023-05-29T19:36:43;7.85;;;3.17;;
57707;SDS011;43540;51.690;9.562;2023-05-29T19:39:10;9.15;;;2.90;;
57707;SDS011;43540;51.690;9.562;2023-05-29T19:41:37;14.82;;;3.47;;
57707;SDS011;43540;51.690;9.562;2023-05-29T19:44:06;8.02;;;2.90;;
57707;SDS011;43540;51.690;9.562;2023-05-29T19:46:37;9.23;;;3.35;;
57707;SDS011;43540;51.690;9.562;2023-05-29T19:49:05;9.05;;;3.00;;
57707;SDS011;43540;51.690;9.562;2023-05-29T19:51:32;9.98;;;2.60;;
57707;SDS011;43540;51.690;9.562;2023-05-29T19:53:59;7.20;;;2.92;;
57707;SDS011;43540;51.690;9.562;2023-05-29T19:56:26;11.20;;;3.55;;
57707;SDS011;43540;51.690;9.562;2023-05-29T19:58:53;8.57;;;3.42;;
57707;SDS011;43540;51.690;9.562;2023-05-29T20:01:20;10.82;;;3.30;;
57707;SDS011;43540;51.690;9.562;2023-05-29T20:03:47;13.68;;;3.00;;
57707;SDS011;43540;51.690;9.562;2023-05-29T20:06:14;11.07;;;3.72;;
57707;SDS011;43540;51.690;9.562;2023-05-29T20:08:41;8.57;;;3.55;;
57707;SDS011;43540;51.690;9.562;2023-05-29T20:11:07;11.45;;;3.45;;
57707;SDS011;43540;51.690;9.562;2023-05-29T20:13:34;11.27;;;2.95;;
57707;SDS011;43540;51.690;9.562;2023-05-29T20:16:01;8.27;;;2.85;;
57707;SDS011;43540;51.690;9.562;2023-05-29T20:18:28;10.32;;;3.47;;
57707;SDS011;43540;51.690;9.562;2023-05-29T20:20:54;8.23;;;2.70;;
57707;SDS011;43540;51.690;9.562;2023-05-29T20:23:21;12.07;;;3.58;;
57707;SDS011;43540;51.690;9.562;2023-05-29T20:25:49;8.48;;;3.20;;
57707;SDS011;43540;51.690;9.562;2023-05-29T20:28:16;9.80;;;3.72;;
57707;SDS011;43540;51.690;9.562;2023-05-29T20:30:43;12.88;;;3.38;;
57707;SDS011;43540;51.690;9.562;2023-05-29T20:33:09;11.07;;;3.03;;
57707;SDS011;43540;51.690;9.562;2023-05-29T20:35:36;8.48;;;3.30;;
57707;SDS011;43540;51.690;9.562;2023-05-29T20:38:04;11.73;;;3.08;;
57707;SDS011;43540;51.690;9.562;2023-05-29T20:40:31;9.55;;;3.00;;
57707;SDS011;43540;51.690;9.562;2023-05-29T20:42:58;8.38;;;2.60;;
57707;SDS011;43540;51.690;9.562;2023-05-29T20:45:27;9.00;;;2.95;;
57707;SDS011;43540;51.690;9.562;2023-05-29T20:47:54;8.50;;;2.90;;
57707;SDS011;43540;51.690;9.562;2023-05-29T20:50:20;9.63;;;2.90;;
57707;SDS011;43540;51.690;9.562;2023-05-29T20:52:48;9.07;;;2.88;;
57707;SDS011;43540;51.690;9.562;2023-05-29T20:55:15;12.70;;;3.70;;
57707;SDS011;43540;51.690;9.562;2023-05-29T20:57:42;8.85;;;3.50;;
57707;SDS011;43540;51.690;9.562;2023-05-29T21:00:08;12.93;;;3.40;;
57707;SDS011;43540;51.690;9.562;2023-05-29T21:02:38;6.10;;;2.55;;
57707;SDS011;43540;51.690;9.562;2023-05-29T21:05:06;9.23;;;2.67;;
57707;SDS011;43540;51.690;9.562;2023-05-29T21:07:34;9.30;;;2.95;;
57707;SDS011;43540;51.690;9.562;2023-05-29T21:10:04;12.18;;;2.95;;
57707;SDS011;43540;51.690;9.562;2023-05-29T21:12:33;10.60;;;3.08;;
57707;SDS011;43540;51.690;9.562;2023-05-29T21:15:02;13.38;;;3.10;;
57707;SDS011;43540;51.690;9.562;2023-05-29T21:17:29;8.27;;;2.47;;
57707;SDS011;43540;51.690;9.562;2023-05-29T21:19:56;12.48;;;3.63;;
57707;SDS011;43540;51.690;9.562;2023-05-29T21:22:27;9.27;;;2.90;;
57707;SDS011;43540;51.690;9.562;2023-05-29T21:24:55;11.35;;;3.17;;
57707;SDS011;43540;51.690;9.562;2023-05-29T21:27:23;8.48;;;2.40;;
57707;SDS011;43540;51.690;9.562;2023-05-29T21:29:50;13.68;;;3.20;;
57707;SDS011;43540;51.690;9.562;2023-05-29T21:32:16;9.73;;;2.67;;
57707;SDS011;43540;51.690;9.562;2023-05-29T21:34:44;8.90;;;2.72;;
57707;SDS011;43540;51.690;9.562;2023-05-29T21:37:10;8.90;;;2.75;;
57707;SDS011;43540;51.690;9.562;2023-05-29T21:39:37;11.70;;;2.97;;
57707;SDS011;43540;51.690;9.562;2023-05-29T21:42:04;15.82;;;2.95;;
57707;SDS011;43540;51.690;9.562;2023-05-29T21:44:31;7.90;;;2.38;;
57707;SDS011;43540;51.690;9.562;2023-05-29T21:46:58;10.32;;;2.80;;
57707;SDS011;43540;51.690;9.562;2023-05-29T21:49:25;9.38;;;2.67;;
57707;SDS011;43540;51.690;9.562;2023-05-29T21:51:51;7.40;;;2.20;;
57707;SDS011;43540;51.690;9.562;2023-05-29T21:54:18;9.77;;;3.13;;
57707;SDS011;43540;51.690;9.562;2023-05-29T21:56:45;10.48;;;2.90;;
57707;SDS011;43540;51.690;9.562;2023-05-29T21:59:12;8.82;;;2.22;;
57707;SDS011;43540;51.690;9.562;2023-05-29T22:01:39;9.63;;;2.20;;
57707;SDS011;43540;51.690;9.562;2023-05-29T22:04:09;10.35;;;2.58;;
57707;SDS011;43540;51.690;9.562;2023-05-29T22:06:36;10.10;;;2.30;;
57707;SDS011;43540;51.690;9.562;2023-05-29T22:09:03;12.88;;;2.05;;
57707;SDS011;43540;51.690;9.562;2023-05-29T22:11:30;8.20;;;2.35;;
57707;SDS011;43540;51.690;9.562;2023-05-29T22:14:01;7.47;;;2.70;;
57707;SDS011;43540;51.690;9.562;2023-05-29T22:16:28;9.93;;;2.63;;
57707;SDS011;43540;51.690;9.562;2023-05-29T22:18:57;9.32;;;2.33;;
57707;SDS011;43540;51.690;9.562;2023-05-29T22:21:31;10.43;;;2.47;;
57707;SDS011;43540;51.690;9.562;2023-05-29T22:23:58;9.75;;;2.50;;
57707;SDS011;43540;51.690;9.562;2023-05-29T22:26:28;8.30;;;2.72;;
57707;SDS011;43540;51.690;9.562;2023-05-29T22:28:55;6.97;;;2.47;;
57707;SDS011;43540;51.690;9.562;2023-05-29T22:31:22;11.35;;;2.25;;
57707;SDS011;43540;51.690;9.562;2023-05-29T22:33:49;9.00;;;2.20;;
57707;SDS011;43540;51.690;9.562;2023-05-29T22:36:16;6.80;;;2.15;;
57707;SDS011;43540;51.690;9.562;2023-05-29T22:38:44;9.32;;;2.60;;
57707;SDS011;43540;51.690;9.562;2023-05-29T22:41:11;8.13;;;2.40;;
57707;SDS011;43540;51.690;9.562;2023-05-29T22:43:37;11.63;;;2.45;;
57707;SDS011;43540;51.690;9.562;2023-05-29T22:46:05;11.23;;;2.70;;
57707;SDS011;43540;51.690;9.562;2023-05-29T22:48:32;13.18;;;3.00;;
57707;SDS011;43540;51.690;9.562;2023-05-29T22:50:59;11.20;;;3.20;;
57707;SDS011;43540;51.690;9.562;2023-05-29T22:53:30;11.27;;;2.58;;
57707;SDS011;43540;51.690;9.562;2023-05-29T22:55:59;10.93;;;2.97;;
57707;SDS011;43540;51.690;9.562;2023-05-29T22:58:26;13.27;;;2.40;;
57707;SDS011;43540;51.690;9.562;2023-05-29T23:00:53;7.30;;;2.53;;
57707;SDS011;43540;51.690;9.562;2023-05-29T23:03:20;8.23;;;2.15;;
57707;SDS011;43540;51.690;9.562;2023-05-29T23:05:47;10.50;;;3.15;;
57707;SDS011;43540;51.690;9.562;2023-05-29T23:08:15;17.73;;;2.80;;
57707;SDS011;43540;51.690;9.562;2023-05-29T23:10:42;7.22;;;1.90;;
57707;SDS011;43540;51.690;9.562;2023-05-29T23:13:12;10.38;;;2.50;;
57707;SDS011;43540;51.690;9.562;2023-05-29T23:15:38;10.30;;;2.38;;
57707;SDS011;43540;51.690;9.562;2023-05-29T23:18:10;8.70;;;2.55;;
57707;SDS011;43540;51.690;9.562;2023-05-29T23:20:37;9.15;;;1.85;;
57707;SDS011;43540;51.690;9.562;2023-05-29T23:23:04;8.38;;;2.72;;
57707;SDS011;43540;51.690;9.562;2023-05-29T23:25:31;9.15;;;2.40;;
57707;SDS011;43540;51.690;9.562;2023-05-29T23:27:58;10.43;;;2.08;;
57707;SDS011;43540;51.690;9.562;2023-05-29T23:30:24;11.75;;;2.95;;
57707;SDS011;43540;51.690;9.562;2023-05-29T23:32:51;11.85;;;2.40;;
57707;SDS011;43540;51.690;9.562;2023-05-29T23:35:17;9.50;;;2.33;;
57707;SDS011;43540;51.690;9.562;2023-05-29T23:37:44;12.48;;;2.35;;
57707;SDS011;43540;51.690;9.562;2023-05-29T23:40:11;13.55;;;2.63;;
57707;SDS011;43540;51.690;9.562;2023-05-29T23:42:38;8.55;;;2.10;;
57707;SDS011;43540;51.690;9.562;2023-05-29T23:45:05;11.55;;;2.72;;